Allendale, New Jersey
Current Conditions -  °F | °C
As of 10:51 AM on Friday 31 Oct 2014 (Local Time) from KTEB Reporting Station
Overcast Overcast  
Wind Chill: 47°   Ceiling: 5000
Heat Index: 49°   Visibility: 10mi
Dew Point: 35°   Wind: 6mph
Humidity: 59%   Direction: NA
Pressure: 29.99"   Gusts: NA
Location:  41.03°N, 74.14°W
Report Text: KTEB 311451Z VRB05KT 10SM OVC050 09/02 A2999 RMK AO2 SLP156 T00940017 58007
Loading
Personal Weather Stations






























Interactive Weather Map
Tropical Storm Tracking
New forecast layout! Learn more

10-Day Weather Forecast

Advertisements
Track Severe Weather on mobile